createdAt,value
2022-08-30T00:00:52.854Z,17.02
2022-08-30T00:01:40.667Z,16.99
2022-08-30T00:02:27.281Z,16.94
2022-08-30T00:03:14.525Z,16.90
2022-08-30T00:04:02.016Z,16.86
2022-08-30T00:04:48.660Z,16.86
2022-08-30T00:05:35.163Z,16.85
2022-08-30T00:06:23.095Z,16.82
2022-08-30T00:07:09.555Z,16.80
2022-08-30T00:07:57.175Z,16.81
2022-08-30T00:08:45.644Z,16.83
2022-08-30T00:09:32.635Z,16.83
2022-08-30T00:10:19.558Z,16.82
2022-08-30T00:11:09.819Z,16.79
2022-08-30T00:11:56.261Z,16.75
2022-08-30T00:12:43.521Z,16.73
2022-08-30T00:13:30.293Z,16.71
2022-08-30T00:14:16.994Z,16.67
2022-08-30T00:15:05.550Z,16.67
2022-08-30T00:15:52.442Z,16.67
2022-08-30T00:16:38.923Z,16.65
2022-08-30T00:17:25.428Z,16.63
2022-08-30T00:18:11.956Z,16.59
2022-08-30T00:18:58.971Z,16.58
2022-08-30T00:19:45.943Z,16.55
2022-08-30T00:20:34.981Z,16.53
2022-08-30T00:21:21.967Z,16.48
2022-08-30T00:22:10.009Z,16.47
2022-08-30T00:22:56.737Z,16.44
2022-08-30T00:23:43.313Z,16.45
2022-08-30T00:24:29.848Z,16.47
2022-08-30T00:25:18.060Z,16.46
2022-08-30T00:26:06.443Z,16.39
2022-08-30T00:26:53.315Z,16.38
2022-08-30T00:27:40.416Z,16.37
2022-08-30T00:28:26.870Z,16.36
2022-08-30T00:29:13.904Z,16.34
2022-08-30T00:30:00.493Z,16.32
2022-08-30T00:30:47.435Z,16.32
2022-08-30T00:31:34.035Z,16.29
2022-08-30T00:32:21.616Z,16.28
2022-08-30T00:33:08.921Z,16.24
2022-08-30T00:33:55.423Z,16.24
2022-08-30T00:34:42.009Z,16.22
2022-08-30T00:35:29.441Z,16.22
2022-08-30T00:36:16.062Z,16.20
2022-08-30T00:37:02.707Z,16.18
2022-08-30T00:37:50.796Z,16.17
2022-08-30T00:38:37.247Z,16.14
2022-08-30T00:39:23.680Z,16.14
2022-08-30T00:40:12.341Z,16.15
2022-08-30T00:40:59.682Z,16.15
2022-08-30T00:41:46.715Z,16.13
2022-08-30T00:42:33.482Z,16.11
2022-08-30T00:43:25.432Z,16.13
2022-08-30T00:44:14.399Z,16.14
2022-08-30T00:45:09.944Z,16.17
2022-08-30T00:45:57.209Z,16.20
2022-08-30T00:46:43.833Z,16.18
2022-08-30T00:47:30.378Z,16.25
2022-08-30T00:48:17.526Z,16.24
2022-08-30T00:49:09.239Z,16.22
2022-08-30T00:49:57.848Z,16.27
2022-08-30T00:50:48.890Z,16.28
2022-08-30T00:51:35.730Z,16.30
2022-08-30T00:52:23.858Z,16.29
2022-08-30T00:53:18.806Z,16.31
2022-08-30T00:54:05.896Z,16.33
2022-08-30T00:54:53.711Z,16.33
2022-08-30T00:55:42.894Z,16.34
2022-08-30T00:56:32.964Z,16.36
2022-08-30T00:57:20.320Z,16.33
2022-08-30T00:58:13.075Z,16.34
2022-08-30T00:59:02.851Z,16.33
2022-08-30T00:59:50.700Z,16.29
2022-08-30T01:00:37.276Z,16.27
2022-08-30T01:01:26.771Z,16.28
2022-08-30T01:02:14.289Z,16.27
2022-08-30T01:03:00.882Z,16.27
2022-08-30T01:03:48.853Z,16.26
2022-08-30T01:04:37.830Z,16.24
2022-08-30T01:05:24.491Z,16.22
2022-08-30T01:06:14.909Z,16.23
2022-08-30T01:07:01.808Z,16.21
2022-08-30T01:07:48.326Z,16.20
2022-08-30T01:08:35.576Z,16.19
2022-08-30T01:09:24.623Z,16.20
2022-08-30T01:10:15.103Z,16.19
2022-08-30T01:11:04.092Z,16.17
2022-08-30T01:11:50.803Z,16.14
2022-08-30T01:12:39.670Z,16.14
2022-08-30T01:13:28.101Z,16.11
2022-08-30T01:14:17.103Z,16.09
2022-08-30T01:15:05.889Z,16.08
2022-08-30T01:15:53.694Z,16.08
2022-08-30T01:16:44.791Z,16.08
2022-08-30T01:17:31.972Z,16.01
2022-08-30T01:18:21.295Z,16.06
2022-08-30T01:19:25.104Z,16.06
2022-08-30T01:20:24.218Z,16.07
2022-08-30T01:21:13.392Z,16.05
2022-08-30T01:22:18.112Z,16.06
2022-08-30T01:23:15.579Z,16.06
2022-08-30T01:24:04.590Z,16.08
2022-08-30T01:24:56.071Z,16.06
2022-08-30T01:25:47.965Z,16.09
2022-08-30T01:26:36.206Z,16.09
2022-08-30T01:27:25.027Z,16.10
2022-08-30T01:28:17.971Z,16.12
2022-08-30T01:29:11.537Z,16.13
2022-08-30T01:29:59.040Z,16.13
2022-08-30T01:30:46.639Z,16.14
2022-08-30T01:31:37.150Z,16.15
2022-08-30T01:32:29.436Z,16.17
2022-08-30T01:33:16.230Z,16.18
2022-08-30T01:34:07.666Z,16.18
2022-08-30T01:34:54.697Z,16.19
2022-08-30T01:35:52.379Z,16.21
2022-08-30T01:36:44.976Z,16.22
2022-08-30T01:37:35.116Z,16.23
2022-08-30T01:38:28.593Z,16.21
2022-08-30T01:39:17.675Z,16.19
2022-08-30T01:40:06.912Z,16.19
2022-08-30T01:40:59.541Z,16.21
2022-08-30T01:41:46.588Z,16.22
2022-08-30T01:42:33.772Z,16.25
2022-08-30T01:43:20.281Z,16.27
2022-08-30T01:44:10.575Z,16.29
2022-08-30T01:44:57.124Z,16.33
2022-08-30T01:45:43.807Z,16.32
2022-08-30T01:46:36.059Z,16.34
2022-08-30T01:47:22.912Z,16.37
2022-08-30T01:48:12.964Z,16.42
2022-08-30T01:48:59.506Z,16.45
2022-08-30T01:49:46.734Z,16.47
2022-08-30T01:50:33.834Z,16.48
2022-08-30T01:51:22.348Z,16.50
2022-08-30T01:52:08.797Z,16.51
2022-08-30T01:52:55.304Z,16.52
2022-08-30T01:53:44.653Z,16.54
2022-08-30T01:54:37.023Z,16.55
2022-08-30T01:55:25.037Z,16.56
2022-08-30T01:56:13.281Z,16.58
2022-08-30T01:56:59.820Z,16.58
2022-08-30T01:57:47.263Z,16.58
2022-08-30T01:58:35.025Z,16.56
2022-08-30T01:59:21.494Z,16.54
2022-08-30T02:00:10.180Z,16.55
2022-08-30T02:00:59.709Z,16.53
2022-08-30T02:01:46.697Z,16.53
2022-08-30T02:02:34.358Z,16.52
2022-08-30T02:03:21.132Z,16.55
2022-08-30T02:04:11.707Z,16.55
2022-08-30T02:04:58.498Z,16.54
2022-08-30T02:05:45.660Z,16.55
2022-08-30T02:06:32.619Z,16.55
2022-08-30T02:07:20.614Z,16.56
2022-08-30T02:08:07.715Z,16.56
2022-08-30T02:08:54.521Z,16.57
2022-08-30T02:09:42.460Z,16.59
2022-08-30T02:10:30.264Z,16.59
2022-08-30T02:11:17.767Z,16.60
2022-08-30T02:12:07.272Z,16.60
2022-08-30T02:12:53.725Z,16.61
2022-08-30T02:13:44.667Z,16.61
2022-08-30T02:14:31.147Z,16.62
2022-08-30T02:15:18.121Z,16.61
2022-08-30T02:16:11.095Z,16.57
2022-08-30T02:16:57.917Z,16.59
2022-08-30T02:17:44.878Z,16.61
2022-08-30T02:18:34.628Z,16.58
2022-08-30T02:19:21.181Z,16.61
2022-08-30T02:20:09.530Z,16.59
2022-08-30T02:20:56.092Z,16.59
2022-08-30T02:21:42.649Z,16.61
2022-08-30T02:22:29.466Z,16.60
2022-08-30T02:23:16.978Z,16.59
2022-08-30T02:24:04.101Z,16.58
2022-08-30T02:24:50.782Z,16.59
2022-08-30T02:25:37.688Z,16.58
2022-08-30T02:26:25.015Z,16.58
2022-08-30T02:27:11.669Z,16.60
2022-08-30T02:27:59.004Z,16.59
2022-08-30T02:28:50.153Z,16.60
2022-08-30T02:29:36.832Z,16.58
2022-08-30T02:30:23.863Z,16.60
2022-08-30T02:31:10.815Z,16.61
2022-08-30T02:31:57.381Z,16.61
2022-08-30T02:32:44.092Z,16.60
2022-08-30T02:33:31.692Z,16.60
2022-08-30T02:34:19.497Z,16.60
2022-08-30T02:35:06.370Z,16.61
2022-08-30T02:35:52.847Z,16.62
2022-08-30T02:36:40.907Z,16.63
2022-08-30T02:37:27.503Z,16.62
2022-08-30T02:38:14.759Z,16.58
2022-08-30T02:39:01.395Z,16.62
2022-08-30T02:39:47.837Z,16.59
2022-08-30T02:40:34.431Z,16.58
2022-08-30T02:41:23.289Z,16.56
2022-08-30T02:42:09.950Z,16.57
2022-08-30T02:42:57.095Z,16.56
2022-08-30T02:43:44.238Z,16.59
2022-08-30T02:44:31.028Z,16.57
2022-08-30T02:45:17.512Z,16.59
2022-08-30T02:46:06.627Z,16.58
2022-08-30T02:46:53.181Z,16.58
2022-08-30T02:47:43.615Z,16.58
2022-08-30T02:48:33.922Z,16.58
2022-08-30T02:49:33.157Z,16.57
2022-08-30T02:50:20.619Z,16.59
2022-08-30T02:51:11.657Z,16.58
2022-08-30T02:51:58.746Z,16.58
2022-08-30T02:52:48.330Z,16.62
2022-08-30T02:53:35.373Z,16.57
2022-08-30T02:54:23.386Z,16.60
2022-08-30T02:55:10.702Z,16.56
2022-08-30T02:55:57.180Z,16.58
2022-08-30T02:56:44.426Z,16.59
2022-08-30T02:57:31.043Z,16.58
2022-08-30T02:58:17.576Z,16.64
2022-08-30T02:59:04.006Z,16.62
2022-08-30T02:59:50.594Z,16.61
2022-08-30T03:00:37.553Z,16.65
2022-08-30T03:01:28.733Z,16.66
2022-08-30T03:02:16.247Z,16.64
2022-08-30T03:03:04.360Z,16.61
2022-08-30T03:03:50.993Z,16.59
2022-08-30T03:04:39.202Z,16.59
2022-08-30T03:05:26.086Z,16.56
2022-08-30T03:06:14.752Z,16.56
2022-08-30T03:07:01.346Z,16.50
2022-08-30T03:07:47.800Z,16.51
2022-08-30T03:08:34.383Z,16.45
2022-08-30T03:09:20.980Z,16.46
2022-08-30T03:10:08.518Z,16.41
2022-08-30T03:10:57.128Z,16.42
2022-08-30T03:11:43.800Z,16.42
2022-08-30T03:12:32.425Z,16.38
2022-08-30T03:13:21.214Z,16.35
2022-08-30T03:14:07.854Z,16.31
2022-08-30T03:14:54.269Z,16.29
2022-08-30T03:15:41.461Z,16.30
2022-08-30T03:16:28.131Z,16.29
2022-08-30T03:17:15.674Z,16.26
2022-08-30T03:18:02.518Z,16.25
2022-08-30T03:18:49.091Z,16.25
2022-08-30T03:19:37.124Z,16.20
2022-08-30T03:20:24.356Z,16.24
2022-08-30T03:21:14.559Z,16.20
2022-08-30T03:22:00.976Z,16.19
2022-08-30T03:22:48.946Z,16.17
2022-08-30T03:23:35.494Z,16.16
2022-08-30T03:24:22.086Z,16.11
2022-08-30T03:25:09.534Z,16.11
2022-08-30T03:25:57.238Z,16.09
2022-08-30T03:26:46.374Z,16.09
2022-08-30T03:27:33.352Z,16.08
2022-08-30T03:28:20.064Z,16.06
2022-08-30T03:29:06.761Z,16.02
2022-08-30T03:29:53.696Z,16.04
2022-08-30T03:30:40.681Z,16.05
2022-08-30T03:31:27.143Z,16.02
2022-08-30T03:32:13.688Z,16.01
2022-08-30T03:33:01.707Z,16.02
2022-08-30T03:33:48.216Z,16.01
2022-08-30T03:34:34.770Z,16.00
2022-08-30T03:35:21.347Z,15.99
2022-08-30T03:36:09.217Z,16.00
2022-08-30T03:36:56.691Z,15.99
2022-08-30T03:37:43.293Z,15.97
2022-08-30T03:38:31.204Z,15.95
2022-08-30T03:39:17.916Z,15.94
2022-08-30T03:40:08.078Z,15.95
2022-08-30T03:40:54.591Z,15.94
2022-08-30T03:41:41.078Z,15.94
2022-08-30T03:42:27.821Z,15.95
2022-08-30T03:43:14.267Z,15.96
2022-08-30T03:44:02.438Z,15.97
2022-08-30T03:44:50.324Z,15.94
2022-08-30T03:45:36.985Z,15.97
2022-08-30T03:46:24.671Z,15.98
2022-08-30T03:47:17.028Z,15.98
2022-08-30T03:48:03.959Z,15.97
2022-08-30T03:48:52.044Z,15.98
2022-08-30T03:49:39.024Z,15.98
2022-08-30T03:50:25.618Z,15.97
2022-08-30T03:51:12.088Z,15.99
2022-08-30T03:51:58.675Z,15.98
2022-08-30T03:52:45.920Z,15.99
2022-08-30T03:53:32.911Z,16.00
2022-08-30T03:54:19.377Z,16.00
2022-08-30T03:55:06.651Z,15.99
2022-08-30T03:55:53.246Z,15.99
2022-08-30T03:56:41.302Z,16.00
2022-08-30T03:57:28.681Z,16.02
2022-08-30T03:58:15.249Z,16.00
2022-08-30T03:59:06.190Z,16.01
2022-08-30T03:59:52.816Z,16.01
2022-08-30T04:00:39.525Z,16.01
2022-08-30T04:01:26.100Z,16.01
2022-08-30T04:02:12.695Z,15.99
2022-08-30T04:02:59.240Z,15.95
2022-08-30T04:03:45.740Z,15.98
2022-08-30T04:04:32.759Z,16.01
2022-08-30T04:05:20.460Z,16.00
2022-08-30T04:06:07.176Z,15.98
2022-08-30T04:06:53.663Z,15.96
2022-08-30T04:07:40.468Z,15.91
2022-08-30T04:08:27.398Z,15.89
2022-08-30T04:09:13.886Z,15.87
2022-08-30T04:10:00.801Z,15.86
2022-08-30T04:10:48.108Z,15.80
2022-08-30T04:11:34.820Z,15.76
2022-08-30T04:12:22.738Z,15.70
2022-08-30T04:13:09.747Z,15.69
2022-08-30T04:13:56.752Z,15.63
2022-08-30T04:14:43.197Z,15.60
2022-08-30T04:15:29.720Z,15.56
2022-08-30T04:16:16.405Z,15.53
2022-08-30T04:17:03.293Z,15.49
2022-08-30T04:17:50.090Z,15.46
2022-08-30T04:18:36.558Z,15.45
2022-08-30T04:19:22.971Z,15.43
2022-08-30T04:20:10.019Z,15.40
2022-08-30T04:20:56.505Z,15.37
2022-08-30T04:21:44.755Z,15.34
2022-08-30T04:22:31.275Z,15.35
2022-08-30T04:23:17.933Z,15.34
2022-08-30T04:24:04.766Z,15.30
2022-08-30T04:24:51.234Z,15.31
2022-08-30T04:25:39.804Z,15.31
2022-08-30T04:26:27.637Z,15.29
2022-08-30T04:27:20.200Z,15.31
2022-08-30T04:28:08.308Z,15.29
2022-08-30T04:28:55.354Z,15.30
2022-08-30T04:29:41.846Z,15.29
2022-08-30T04:30:28.431Z,15.28
2022-08-30T04:31:17.646Z,15.29
2022-08-30T04:32:04.412Z,15.26
2022-08-30T04:32:53.509Z,15.25
2022-08-30T04:33:43.511Z,15.26
2022-08-30T04:34:30.001Z,15.25
2022-08-30T04:35:16.740Z,15.24
2022-08-30T04:36:08.690Z,15.25
2022-08-30T04:36:55.400Z,15.24
2022-08-30T04:37:42.040Z,15.24
2022-08-30T04:38:30.519Z,15.26
2022-08-30T04:39:20.566Z,15.25
2022-08-30T04:40:08.125Z,15.25
2022-08-30T04:40:55.184Z,15.26
2022-08-30T04:41:41.658Z,15.26
2022-08-30T04:42:32.156Z,15.26
2022-08-30T04:43:18.735Z,15.25
2022-08-30T04:44:05.363Z,15.26
2022-08-30T04:44:51.847Z,15.25
2022-08-30T04:45:40.483Z,15.25
2022-08-30T04:46:26.940Z,15.24
2022-08-30T04:47:13.494Z,15.25
2022-08-30T04:48:00.241Z,15.27
2022-08-30T04:48:47.563Z,15.24
2022-08-30T04:49:33.976Z,15.27
2022-08-30T04:50:21.636Z,15.26
2022-08-30T04:51:11.279Z,15.26
2022-08-30T04:51:58.327Z,15.27
2022-08-30T04:52:44.825Z,15.27
2022-08-30T04:53:31.556Z,15.28
2022-08-30T04:54:18.026Z,15.28
2022-08-30T04:55:05.418Z,15.31
2022-08-30T04:55:51.862Z,15.31
2022-08-30T04:56:38.338Z,15.31
2022-08-30T04:57:27.041Z,15.31
2022-08-30T04:58:13.501Z,15.30
2022-08-30T04:59:00.149Z,15.29
2022-08-30T04:59:46.787Z,15.31
2022-08-30T05:00:33.507Z,15.35
2022-08-30T05:01:28.093Z,15.35
2022-08-30T05:02:15.063Z,15.35
2022-08-30T05:03:01.536Z,15.34
2022-08-30T05:03:49.504Z,15.35
2022-08-30T05:04:36.893Z,15.35
2022-08-30T05:05:41.786Z,15.36
2022-08-30T05:06:31.162Z,15.36
2022-08-30T05:07:17.618Z,15.37
2022-08-30T05:08:04.462Z,15.38
2022-08-30T05:08:53.023Z,15.36
2022-08-30T05:09:39.492Z,15.34
2022-08-30T05:10:29.584Z,15.32
2022-08-30T05:11:17.023Z,15.35
2022-08-30T05:12:03.562Z,15.34
2022-08-30T05:12:50.145Z,15.35
2022-08-30T05:13:37.639Z,15.36
2022-08-30T05:14:24.923Z,15.36
2022-08-30T05:15:12.448Z,15.35
2022-08-30T05:16:00.238Z,15.38
2022-08-30T05:16:46.797Z,15.38
2022-08-30T05:17:34.190Z,15.38
2022-08-30T05:18:23.287Z,15.39
2022-08-30T05:19:09.776Z,15.37
2022-08-30T05:19:56.440Z,15.40
2022-08-30T05:20:43.960Z,15.41
2022-08-30T05:21:30.519Z,15.42
2022-08-30T05:22:17.000Z,15.43
2022-08-30T05:23:04.726Z,15.45
2022-08-30T05:23:54.324Z,15.47
2022-08-30T05:24:40.739Z,15.47
2022-08-30T05:25:30.954Z,15.48
2022-08-30T05:26:22.967Z,15.49
2022-08-30T05:27:11.767Z,15.48
2022-08-30T05:27:59.020Z,15.49
2022-08-30T05:28:46.392Z,15.49
2022-08-30T05:29:36.285Z,15.51
2022-08-30T05:30:25.226Z,15.54
2022-08-30T05:31:21.830Z,15.52
2022-08-30T05:32:08.527Z,15.54
2022-08-30T05:32:54.996Z,15.55
2022-08-30T05:33:42.510Z,15.55
2022-08-30T05:34:31.963Z,15.54
2022-08-30T05:35:25.395Z,15.55
2022-08-30T05:36:14.266Z,15.57
2022-08-30T05:37:02.677Z,15.56
2022-08-30T05:37:49.317Z,15.57
2022-08-30T05:38:36.661Z,15.56
2022-08-30T05:39:23.197Z,15.60
2022-08-30T05:40:12.693Z,15.61
2022-08-30T05:40:59.665Z,15.61
2022-08-30T05:41:46.576Z,15.64
2022-08-30T05:42:33.662Z,15.66
2022-08-30T05:43:20.073Z,15.66
2022-08-30T05:44:13.458Z,15.64
2022-08-30T05:44:59.962Z,15.62
2022-08-30T05:45:46.474Z,15.61
2022-08-30T05:47:25.927Z,15.60
2022-08-30T05:48:13.118Z,15.59
2022-08-30T05:49:03.471Z,15.58
2022-08-30T05:49:49.994Z,15.58
2022-08-30T05:50:39.817Z,15.57
2022-08-30T05:51:28.861Z,15.58
2022-08-30T05:52:18.043Z,15.61
2022-08-30T05:53:04.512Z,15.59
2022-08-30T05:53:53.893Z,15.60
2022-08-30T05:54:40.359Z,15.61
2022-08-30T05:55:26.834Z,15.61
2022-08-30T05:56:16.821Z,15.62
2022-08-30T05:57:03.544Z,15.62
2022-08-30T05:57:49.971Z,15.63
2022-08-30T05:58:37.190Z,15.64
2022-08-30T05:59:23.764Z,15.65
2022-08-30T06:00:17.914Z,15.68
2022-08-30T06:01:23.610Z,15.73
2022-08-30T06:02:10.422Z,15.75
2022-08-30T06:02:58.072Z,15.78
2022-08-30T06:03:44.621Z,15.79
2022-08-30T06:04:31.869Z,15.82
2022-08-30T06:05:19.397Z,15.83
2022-08-30T06:06:06.176Z,15.87
2022-08-30T06:06:54.035Z,15.92
2022-08-30T06:07:43.050Z,16.08
2022-08-30T06:08:29.949Z,16.04
2022-08-30T06:09:16.687Z,16.12
2022-08-30T06:10:06.513Z,16.13
2022-08-30T06:10:53.004Z,16.17
2022-08-30T06:11:39.497Z,16.21
2022-08-30T06:12:26.539Z,16.29
2022-08-30T06:13:14.410Z,16.36
2022-08-30T06:14:02.101Z,16.44
2022-08-30T06:14:48.591Z,16.45
2022-08-30T06:15:35.334Z,16.48
2022-08-30T06:16:26.005Z,16.55
2022-08-30T06:17:12.715Z,16.59
2022-08-30T06:17:59.768Z,16.64
2022-08-30T06:18:47.073Z,16.68
2022-08-30T06:19:33.568Z,16.74
2022-08-30T06:20:20.984Z,16.78
2022-08-30T06:21:09.516Z,16.80
2022-08-30T06:21:57.947Z,16.82
2022-08-30T06:22:44.456Z,16.85
2022-08-30T06:23:31.279Z,16.87
2022-08-30T06:24:17.977Z,16.92
2022-08-30T06:25:05.758Z,16.95
2022-08-30T06:25:52.534Z,16.99
2022-08-30T06:26:42.928Z,17.02
2022-08-30T06:27:31.115Z,17.04
2022-08-30T06:28:18.295Z,17.07
2022-08-30T06:29:05.004Z,17.09
2022-08-30T06:29:53.540Z,17.13
2022-08-30T06:30:41.898Z,17.15
2022-08-30T06:31:28.389Z,17.19
2022-08-30T06:32:14.856Z,17.22
2022-08-30T06:33:01.924Z,17.25
2022-08-30T06:33:48.735Z,17.26
2022-08-30T06:34:35.185Z,17.28
2022-08-30T06:35:21.702Z,17.32
2022-08-30T06:36:19.164Z,17.33
2022-08-30T06:37:05.672Z,17.38
2022-08-30T06:37:52.141Z,17.41
2022-08-30T06:38:40.283Z,17.43
2022-08-30T06:39:27.067Z,17.49
2022-08-30T06:40:14.139Z,17.48
2022-08-30T06:41:00.879Z,17.55
2022-08-30T06:41:48.600Z,17.58
2022-08-30T06:42:47.691Z,17.61
2022-08-30T06:43:34.310Z,17.67
2022-08-30T06:44:21.264Z,17.72
2022-08-30T06:45:10.446Z,17.74
2022-08-30T06:46:03.372Z,17.79
2022-08-30T06:46:50.036Z,17.83
2022-08-30T06:47:36.633Z,17.89
2022-08-30T06:48:23.143Z,17.93
2022-08-30T06:49:09.669Z,17.99
2022-08-30T06:49:57.382Z,18.02
2022-08-30T06:50:45.077Z,18.17
2022-08-30T06:51:36.144Z,18.18
2022-08-30T06:52:22.656Z,18.22
2022-08-30T06:53:09.447Z,18.25
2022-08-30T06:53:56.433Z,18.28
2022-08-30T06:54:43.734Z,18.31
2022-08-30T06:55:33.131Z,18.32
2022-08-30T06:56:22.656Z,18.36
2022-08-30T06:57:09.078Z,18.39
2022-08-30T06:57:55.534Z,18.41
2022-08-30T06:58:42.562Z,18.43
2022-08-30T06:59:29.076Z,18.45
2022-08-30T07:00:16.791Z,18.53
2022-08-30T07:01:21.742Z,18.52
2022-08-30T07:02:09.197Z,18.51
2022-08-30T07:02:55.950Z,18.51
2022-08-30T07:03:42.856Z,18.52
2022-08-30T07:04:29.432Z,18.55
2022-08-30T07:05:18.998Z,18.57
2022-08-30T07:06:08.589Z,18.66
2022-08-30T07:06:55.127Z,18.72
2022-08-30T07:07:41.576Z,18.82
2022-08-30T07:08:28.218Z,18.93
2022-08-30T07:09:14.649Z,19.06
2022-08-30T07:10:08.789Z,19.17
2022-08-30T07:10:55.847Z,19.30
2022-08-30T07:11:43.603Z,19.39
2022-08-30T07:12:30.905Z,19.49
2022-08-30T07:13:17.823Z,19.59
2022-08-30T07:14:05.698Z,19.72
2022-08-30T07:14:52.195Z,19.79
2022-08-30T07:15:42.601Z,19.85
2022-08-30T07:16:29.271Z,19.90
2022-08-30T07:17:35.751Z,20.01
2022-08-30T07:18:41.076Z,20.09
2022-08-30T07:19:27.587Z,20.15
2022-08-30T07:20:14.151Z,20.19
2022-08-30T07:21:08.210Z,20.16
2022-08-30T07:21:54.801Z,20.17
2022-08-30T07:22:42.030Z,20.20
2022-08-30T07:23:28.501Z,20.22
2022-08-30T07:24:14.963Z,20.23
2022-08-30T07:25:01.786Z,20.21
2022-08-30T07:25:48.378Z,20.25
2022-08-30T07:26:38.582Z,20.26
2022-08-30T07:27:25.262Z,20.27
2022-08-30T07:28:12.600Z,20.33
2022-08-30T07:29:02.890Z,20.34
2022-08-30T07:29:50.016Z,20.37
2022-08-30T07:30:37.659Z,20.43
2022-08-30T07:31:25.275Z,20.48
2022-08-30T07:32:11.699Z,20.55
2022-08-30T07:32:58.694Z,20.63
2022-08-30T07:33:46.400Z,20.69
2022-08-30T07:34:33.157Z,20.78
2022-08-30T07:35:19.605Z,20.86
2022-08-30T07:36:07.169Z,21.00
2022-08-30T07:36:53.868Z,21.07
2022-08-30T07:37:40.419Z,21.21
2022-08-30T07:38:27.516Z,21.25
2022-08-30T07:39:17.286Z,21.31
2022-08-30T07:40:04.804Z,21.38
2022-08-30T07:40:51.663Z,21.41
2022-08-30T07:41:40.331Z,21.59
2022-08-30T07:42:26.790Z,21.58
2022-08-30T07:43:13.305Z,21.60
2022-08-30T07:44:00.260Z,21.60
2022-08-30T07:44:47.649Z,21.75
2022-08-30T07:45:34.088Z,21.84
2022-08-30T07:46:23.928Z,21.96
2022-08-30T07:47:11.494Z,22.04
2022-08-30T07:47:58.506Z,22.22
2022-08-30T07:48:45.728Z,22.46
2022-08-30T07:49:33.083Z,22.47
2022-08-30T07:50:19.552Z,22.50
2022-08-30T07:51:10.230Z,22.54
2022-08-30T07:51:57.123Z,22.51
2022-08-30T07:52:43.673Z,22.58
2022-08-30T07:53:30.991Z,22.65
2022-08-30T07:54:17.618Z,22.71
2022-08-30T07:55:06.011Z,22.78
2022-08-30T07:55:53.302Z,22.85
2022-08-30T07:56:40.092Z,22.93
2022-08-30T07:57:28.123Z,22.94
2022-08-30T07:58:14.976Z,22.95
2022-08-30T07:59:01.792Z,22.93
2022-08-30T07:59:51.109Z,22.88
2022-08-30T08:00:37.657Z,22.85
2022-08-30T08:01:25.629Z,22.76
2022-08-30T08:02:12.378Z,22.73
2022-08-30T08:03:05.231Z,22.68
2022-08-30T08:03:53.205Z,22.62
2022-08-30T08:04:39.891Z,22.61
2022-08-30T08:05:26.720Z,22.61
2022-08-30T08:06:15.451Z,22.64
2022-08-30T08:07:02.243Z,22.63
2022-08-30T08:07:48.836Z,22.57
2022-08-30T08:08:36.613Z,22.69
2022-08-30T08:09:23.144Z,22.79
2022-08-30T08:10:10.203Z,22.79
2022-08-30T08:11:08.138Z,22.86
2022-08-30T08:11:55.281Z,22.80
2022-08-30T08:12:41.972Z,22.79
2022-08-30T08:13:32.668Z,22.80
2022-08-30T08:14:21.373Z,22.84
2022-08-30T08:15:09.084Z,22.79
2022-08-30T08:15:55.723Z,22.77
2022-08-30T08:16:44.670Z,22.80
2022-08-30T08:17:31.235Z,22.81
2022-08-30T08:18:17.853Z,22.85
2022-08-30T08:19:08.903Z,22.82
2022-08-30T08:19:55.452Z,22.80
2022-08-30T08:20:42.523Z,22.94
2022-08-30T08:21:28.999Z,22.90
2022-08-30T08:22:20.992Z,22.94
2022-08-30T08:23:08.767Z,22.89
2022-08-30T08:23:55.435Z,22.80
2022-08-30T08:24:41.900Z,22.83
2022-08-30T08:25:28.542Z,22.86
2022-08-30T08:26:18.555Z,22.82
2022-08-30T08:27:05.201Z,22.96
2022-08-30T08:27:53.076Z,22.94
2022-08-30T08:28:52.775Z,22.92
2022-08-30T08:29:39.401Z,23.01
2022-08-30T08:30:25.989Z,22.95
2022-08-30T08:31:18.103Z,22.92
2022-08-30T08:32:05.218Z,22.89
2022-08-30T08:32:52.705Z,22.85
2022-08-30T08:33:39.178Z,22.77
2022-08-30T08:34:27.110Z,22.77
2022-08-30T08:35:14.836Z,22.66
2022-08-30T08:36:01.801Z,22.57
2022-08-30T08:36:50.873Z,22.66
2022-08-30T08:37:39.106Z,22.74
2022-08-30T08:38:25.522Z,22.73
2022-08-30T08:39:12.022Z,22.78
2022-08-30T08:39:58.593Z,22.79
2022-08-30T08:41:03.691Z,22.85
2022-08-30T08:42:04.111Z,22.89
2022-08-30T08:43:00.692Z,22.91
2022-08-30T08:43:47.533Z,22.86
2022-08-30T08:44:54.302Z,22.99
2022-08-30T08:45:47.453Z,23.01
2022-08-30T08:47:11.660Z,23.07
2022-08-30T08:48:10.401Z,23.28
2022-08-30T08:49:04.785Z,23.26
2022-08-30T08:49:58.273Z,23.25
2022-08-30T08:51:07.212Z,23.26
2022-08-30T08:52:14.218Z,23.27
2022-08-30T08:53:46.051Z,23.29
2022-08-30T08:54:48.578Z,23.26
2022-08-30T08:55:39.413Z,23.39
2022-08-30T08:56:26.537Z,23.42
2022-08-30T08:57:15.981Z,23.49
2022-08-30T08:58:03.169Z,23.66
2022-08-30T08:58:53.404Z,23.66
2022-08-30T08:59:40.070Z,23.73
2022-08-30T09:00:26.621Z,23.75
2022-08-30T09:01:17.938Z,23.79
2022-08-30T09:02:24.601Z,23.87
2022-08-30T09:03:16.343Z,23.86
2022-08-30T09:04:34.301Z,23.95
2022-08-30T09:05:25.827Z,24.10
2022-08-30T09:06:26.439Z,24.22
2022-08-30T09:07:24.526Z,24.26
2022-08-30T09:08:15.239Z,24.28
2022-08-30T09:09:01.711Z,24.18
2022-08-30T09:09:50.074Z,24.08
2022-08-30T09:10:50.568Z,24.09
2022-08-30T09:11:39.637Z,24.10
2022-08-30T09:12:27.553Z,24.14
2022-08-30T09:13:14.239Z,24.19
2022-08-30T09:14:01.108Z,24.31
2022-08-30T09:14:55.501Z,24.30
2022-08-30T09:15:42.906Z,24.35
2022-08-30T09:16:57.529Z,24.28
2022-08-30T09:17:55.148Z,24.25
2022-08-30T09:18:46.894Z,24.26
2022-08-30T09:19:44.025Z,24.42
2022-08-30T09:20:33.653Z,24.59
2022-08-30T09:21:25.692Z,24.85
2022-08-30T09:22:25.402Z,24.87
2022-08-30T09:23:27.379Z,25.09
2022-08-30T09:24:15.596Z,25.27
2022-08-30T09:25:10.828Z,25.42
2022-08-30T09:25:59.947Z,25.63
2022-08-30T09:26:46.469Z,25.62
2022-08-30T09:27:36.252Z,25.80
2022-08-30T09:28:29.451Z,25.85
2022-08-30T09:29:20.157Z,25.80
2022-08-30T09:30:14.351Z,25.66
2022-08-30T09:31:12.184Z,25.73
2022-08-30T09:32:22.520Z,26.07
2022-08-30T09:33:19.700Z,26.29
2022-08-30T09:34:09.698Z,26.28
2022-08-30T09:34:57.321Z,25.96
2022-08-30T09:35:47.616Z,25.85
2022-08-30T09:36:51.065Z,26.01
2022-08-30T09:37:46.085Z,26.05
2022-08-30T09:38:34.079Z,26.01
2022-08-30T09:39:31.332Z,26.03
2022-08-30T09:40:33.722Z,26.01
2022-08-30T09:41:42.830Z,26.02
2022-08-30T09:42:30.010Z,25.95
2022-08-30T09:43:16.677Z,25.96
2022-08-30T09:44:15.676Z,26.06
2022-08-30T09:45:10.883Z,26.02
2022-08-30T09:46:00.204Z,26.12
2022-08-30T09:46:59.329Z,26.07
2022-08-30T09:47:45.940Z,26.04
2022-08-30T09:48:44.139Z,26.12
2022-08-30T09:49:43.492Z,26.09
2022-08-30T09:50:36.792Z,26.07
2022-08-30T09:51:43.868Z,26.14
2022-08-30T09:52:45.787Z,26.31
2022-08-30T09:54:17.768Z,26.22
2022-08-30T09:55:26.698Z,26.33
2022-08-30T09:56:40.802Z,26.43
2022-08-30T09:57:33.759Z,26.57
2022-08-30T09:58:54.945Z,26.54
2022-08-30T09:59:57.852Z,26.66
2022-08-30T10:00:55.351Z,26.44
2022-08-30T10:01:48.397Z,26.36
2022-08-30T10:02:55.116Z,26.40
2022-08-30T10:03:49.800Z,26.41
2022-08-30T10:05:05.545Z,26.45
2022-08-30T10:06:03.878Z,26.43
2022-08-30T10:07:00.765Z,26.46
2022-08-30T10:07:55.779Z,26.49
2022-08-30T10:08:55.492Z,26.56
2022-08-30T10:09:57.100Z,26.66
2022-08-30T10:10:58.672Z,26.63
2022-08-30T10:12:22.243Z,26.65
2022-08-30T10:13:22.579Z,26.81
2022-08-30T10:14:34.470Z,26.76
2022-08-30T10:15:32.148Z,26.71
2022-08-30T10:16:32.798Z,26.79
2022-08-30T10:17:45.212Z,26.78
2022-08-30T10:18:43.304Z,26.71
2022-08-30T10:19:42.632Z,26.86
2022-08-30T10:21:14.409Z,27.06
2022-08-30T10:22:31.772Z,27.19
2022-08-30T10:23:26.087Z,27.32
2022-08-30T10:24:21.160Z,27.45
2022-08-30T10:25:34.260Z,27.65
2022-08-30T10:26:23.697Z,27.90
2022-08-30T10:27:20.472Z,27.97
2022-08-30T10:28:22.586Z,28.08
2022-08-30T10:29:23.534Z,28.17
2022-08-30T10:30:15.327Z,28.24
2022-08-30T10:31:10.930Z,28.47
2022-08-30T10:32:10.630Z,28.59
2022-08-30T10:33:14.890Z,28.47
2022-08-30T10:34:12.506Z,28.46
2022-08-30T10:35:10.400Z,28.74
2022-08-30T10:36:02.469Z,28.80
2022-08-30T10:37:08.879Z,28.92
2022-08-30T10:38:06.238Z,28.69
2022-08-30T10:38:55.661Z,28.72
2022-08-30T10:39:48.825Z,28.68
2022-08-30T10:40:58.402Z,28.75
2022-08-30T10:41:53.556Z,28.70